地図

経路データ

SID SEASON NUMBER BASIN SUBBASIN NAME ISO_TIME NATURE LAT LON WMO_WIND WMO_PRES WMO_AGENCY TRACK_TYPE DIST2LAND LANDFALL IFLAG USA_AGENCY USA_ATCF_ID USA_LAT USA_LON USA_RECORD USA_STATUS USA_WIND USA_PRES USA_SSHS USA_R34_NE USA_R34_SE USA_R34_SW USA_R34_NW USA_R50_NE USA_R50_SE USA_R50_SW USA_R50_NW USA_R64_NE USA_R64_SE USA_R64_SW USA_R64_NW USA_POCI USA_ROCI USA_RMW USA_EYE TOKYO_LAT TOKYO_LON TOKYO_GRADE TOKYO_WIND TOKYO_PRES TOKYO_R50_DIR TOKYO_R50_LONG TOKYO_R50_SHORT TOKYO_R30_DIR TOKYO_R30_LONG TOKYO_R30_SHORT TOKYO_LAND CMA_LAT CMA_LON CMA_CAT CMA_WIND CMA_PRES HKO_LAT HKO_LON HKO_CAT HKO_WIND HKO_PRES NEWDELHI_LAT NEWDELHI_LON NEWDELHI_GRADE NEWDELHI_WIND NEWDELHI_PRES NEWDELHI_CI NEWDELHI_DP NEWDELHI_POCI REUNION_LAT REUNION_LON REUNION_TYPE REUNION_WIND REUNION_PRES REUNION_TNUM REUNION_CI REUNION_RMW REUNION_R34_NE REUNION_R34_SE REUNION_R34_SW REUNION_R34_NW REUNION_R50_NE REUNION_R50_SE REUNION_R50_SW REUNION_R50_NW REUNION_R64_NE REUNION_R64_SE REUNION_R64_SW REUNION_R64_NW BOM_LAT BOM_LON BOM_TYPE BOM_WIND BOM_PRES BOM_TNUM BOM_CI BOM_RMW BOM_R34_NE BOM_R34_SE BOM_R34_SW BOM_R34_NW BOM_R50_NE BOM_R50_SE BOM_R50_SW BOM_R50_NW BOM_R64_NE BOM_R64_SE BOM_R64_SW BOM_R64_NW BOM_ROCI BOM_POCI BOM_EYE BOM_POS_METHOD BOM_PRES_METHOD NADI_LAT NADI_LON NADI_CAT NADI_WIND NADI_PRES WELLINGTON_LAT WELLINGTON_LON WELLINGTON_WIND WELLINGTON_PRES DS824_LAT DS824_LON DS824_STAGE DS824_WIND DS824_PRES TD9636_LAT TD9636_LON TD9636_STAGE TD9636_WIND TD9636_PRES TD9635_LAT TD9635_LON TD9635_WIND TD9635_PRES TD9635_ROCI NEUMANN_LAT NEUMANN_LON NEUMANN_CLASS NEUMANN_WIND NEUMANN_PRES MLC_LAT MLC_LON MLC_CLASS MLC_WIND MLC_PRES USA_GUST BOM_GUST BOM_GUST_PER REUNION_GUST REUNION_GUST_PER USA_SEAHGT USA_SEARAD_NE USA_SEARAD_SE USA_SEARAD_SW USA_SEARAD_NW STORM_SPEED STORM_DIR
1899220N16094 1899 23 NI BB NOT_NAMED 1899-08-08 00:00:00 TS 15.5000 94.1000 main 46 46 _________O____ -1 15.5000 94.1000 TC 34 8 295
1899220N16094 1899 23 NI BB NOT_NAMED 1899-08-08 03:00:00 TS 15.6685 93.7319 main 63 63 _________PO___ -1 15.7528 93.5478 TC 36 15.5000 94.1000 2 9 295
1899220N16094 1899 23 NI BB NOT_NAMED 1899-08-08 06:00:00 TS 15.8921 93.2326 main 107 107 _________OP___ -1 16.0000 93.0000 TC 39 15.7301 93.5814 2 11 295
1899220N16094 1899 23 NI BB NOT_NAMED 1899-08-08 09:00:00 TS 16.1247 92.7112 main 160 160 _________PP___ -1 16.2423 92.4573 TC 42 15.9678 93.0498 2 11 295
1899220N16094 1899 23 NI BB NOT_NAMED 1899-08-08 12:00:00 TS 16.3608 92.1967 main 218 218 _________OP___ -1 16.5000 91.9000 TC 45 16.2216 92.4934 2 12 296
1899220N16094 1899 23 NI BB NOT_NAMED 1899-08-08 15:00:00 TS 16.6462 91.6074 main 285 285 _________PO___ -1 16.7923 91.3149 TC 45 16.5000 91.9000 3 13 297
1899220N16094 1899 23 NI BB NOT_NAMED 1899-08-08 18:00:00 TS 16.9531 90.9824 main 355 355 _________OP___ -1 17.1000 90.7000 TC 45 16.8063 91.2647 3 14 297
1899220N16094 1899 23 NI BB NOT_NAMED 1899-08-08 21:00:00 TS 17.2729 90.3206 main 406 406 _________PP___ -1 17.4226 90.0277 TC 45 17.1231 90.6135 3 14 296
1899220N16094 1899 23 NI BB NOT_NAMED 1899-08-09 00:00:00 TS 17.5641 89.6902 main 436 383 _________OP___ -1 17.7000 89.4000 TC 45 17.4283 89.9803 3 12 295
1899220N16094 1899 23 NI BB NOT_NAMED 1899-08-09 03:00:00 TS 17.7824 89.1561 main 383 337 _________PO___ -1 17.8647 88.9121 TC 45 17.7000 89.4000 3 10 293
1899220N16094 1899 23 NI BB NOT_NAMED 1899-08-09 06:00:00 TS 17.9550 88.7022 main 329 291 _________OP___ -1 18.0000 88.5000 TC 45 17.9101 88.9044 3 9 293
1899220N16094 1899 23 NI BB NOT_NAMED 1899-08-09 09:00:00 TS 18.1432 88.2757 main 291 246 _________PP___ -1 18.1999 88.0850 TC 45 18.0865 88.4664 3 9 295
1899220N16094 1899 23 NI BB NOT_NAMED 1899-08-09 12:00:00 TS 18.3223 87.8851 main 246 203 _________OP___ -1 18.4000 87.7000 TC 45 18.2447 88.0702 3 8 295
1899220N16094 1899 23 NI BB NOT_NAMED 1899-08-09 15:00:00 TS 18.4749 87.5212 main 203 177 _________PO___ -1 18.5499 87.3423 TC 45 18.4000 87.7000 3 8 295
1899220N16094 1899 23 NI BB NOT_NAMED 1899-08-09 18:00:00 TS 18.6374 87.1580 main 177 140 _________OP___ -1 18.7000 87.0000 TC 45 18.5747 87.3160 3 8 297
1899220N16094 1899 23 NI BB NOT_NAMED 1899-08-09 21:00:00 TS 18.8248 86.7986 main 140 109 _________PP___ -1 18.9000 86.6425 TC 45 18.7497 86.9548 3 8 300
1899220N16094 1899 23 NI BB NOT_NAMED 1899-08-10 00:00:00 TS 19.0124 86.4580 main 109 78 _________OP___ -1 19.1000 86.3000 TC 45 18.9248 86.6161 3 7 299
1899220N16094 1899 23 NI BB NOT_NAMED 1899-08-10 03:00:00 TS 19.1750 86.1424 main 74 56 _________PO___ -1 19.2499 85.9849 TC 41 19.1000 86.3000 3 7 299
1899220N16094 1899 23 NI BB NOT_NAMED 1899-08-10 06:00:00 TS 19.3354 85.8475 main 53 23 _________OP___ -1 19.4000 85.7000 TC 37 19.2707 85.9951 3 6 303
1899220N16094 1899 23 NI BB NOT_NAMED 1899-08-10 09:00:00 TS 19.5173 85.5773 main 23 0 _________PP___ -1 19.5924 85.4424 TC 33 19.4422 85.7122 3 6 307
1899220N16094 1899 23 NI BB NOT_NAMED 1899-08-10 12:00:00 TS 19.7088 85.3241 main 0 0 _________OP___ -1 19.8000 85.2000 TC 30 19.6176 85.4482 3 6 309
1899220N16094 1899 23 NI BB NOT_NAMED 1899-08-10 15:00:00 TS 19.9000 85.0712 main 0 0 _________PO___ -1 20.0000 84.9425 TC 30 19.8000 85.2000 1 6 309
1899220N16094 1899 23 NI BB NOT_NAMED 1899-08-10 18:00:00 TS 20.0739 84.8419 main 0 0 _________OP___ -1 20.2000 84.7000 TC 30 19.9477 84.9839 1 5 310
1899220N16094 1899 23 NI BB NOT_NAMED 1899-08-10 21:00:00 TS 20.2358 84.6501 main 0 0 _________PP___ -1 20.3623 84.5220 TC 30 20.1094 84.7782 1 5 315
1899220N16094 1899 23 NI BB NOT_NAMED 1899-08-11 00:00:00 TS 20.4582 84.4293 main 0 0 _________OP___ -1 20.6000 84.3000 TC 30 20.3164 84.5585 1 8 318
1899220N16094 1899 23 NI BB NOT_NAMED 1899-08-11 03:00:00 TS 20.8026 84.1114 main 0 0 _________PO___ -1 21.0051 83.9227 TC 30 20.6000 84.3000 1 10 321
1899220N16094 1899 23 NI BB NOT_NAMED 1899-08-11 06:00:00 TS 21.2583 83.7286 main 0 0 _________OP___ -1 21.5000 83.5000 TC 30 21.0166 83.9571 1 12 324
1899220N16094 1899 23 NI BB NOT_NAMED 1899-08-11 09:00:00 TS 21.7602 83.3546 main 0 0 _________PP___ -1 22.0149 83.1350 TC 30 21.5055 83.5742 1 12 326
1899220N16094 1899 23 NI BB NOT_NAMED 1899-08-11 12:00:00 TS 22.2583 82.9895 main 0 0 _________OP___ -1 22.5000 82.8000 TC 30 22.0166 83.1789 1 11 325
1899220N16094 1899 23 NI BB NOT_NAMED 1899-08-11 15:00:00 TS 22.6862 82.6461 main 0 0 _________PO___ -1 22.8724 82.4921 TC 30 22.5000 82.8000 1 10 323
1899220N16094 1899 23 NI BB NOT_NAMED 1899-08-11 18:00:00 TS 23.0386 82.3486 main 0 0 _________OP___ -1 23.2000 82.2000 TC 30 22.9176 82.4600 1 9 322
1899220N16094 1899 23 NI BB NOT_NAMED 1899-08-11 21:00:00 TS 23.3834 82.0539 main 0 0 _________PP___ -1 23.5426 81.9029 TC 30 23.2773 82.1545 1 8 322
1899220N16094 1899 23 NI BB NOT_NAMED 1899-08-12 00:00:00 TS 23.6989 81.7812 main 0 0 _________OP___ -1 23.9000 81.6000 TC 30 23.5984 81.8718 1 7 321
1899220N16094 1899 23 NI BB NOT_NAMED 1899-08-12 03:00:00 NR 23.9000 81.6000 main 0 __________O___ -1 TC 23.9000 81.6000 1 5 320

IBTrACS Databaseについて

本データベースは、米国NOAAが公開する1842年以降の世界の熱帯低気圧のベストトラックデータアーカイブInternational Best Track Archive for Climate Stewardship (IBTrACS)を、ウェブで閲覧しやすい形式に変換したものです。

最終更新日:2021-12-03